createdAt,value
2019-02-09T00:00:57.772Z,302.23
2019-02-09T00:01:57.032Z,302.27
2019-02-09T00:02:57.043Z,302.86
2019-02-09T00:03:57.304Z,302.08
2019-02-09T00:04:56.979Z,302.21
2019-02-09T00:05:57.017Z,301.94
2019-02-09T00:06:57.000Z,302.33
2019-02-09T00:07:56.970Z,302.08
2019-02-09T00:08:57.006Z,302.45
2019-02-09T00:09:56.928Z,302.63
2019-02-09T00:10:56.912Z,302.80
2019-02-09T00:11:56.940Z,302.59
2019-02-09T00:12:56.908Z,302.40
2019-02-09T00:13:56.929Z,302.57
2019-02-09T00:14:56.905Z,302.15
2019-02-09T00:15:56.883Z,302.62
2019-02-09T00:16:56.860Z,302.01
2019-02-09T00:17:56.856Z,302.28
2019-02-09T00:18:57.805Z,302.33
2019-02-09T00:19:56.842Z,302.09
2019-02-09T00:20:56.842Z,302.40
2019-02-09T00:21:56.846Z,302.20
2019-02-09T00:22:57.807Z,302.50
2019-02-09T00:23:56.800Z,302.03
2019-02-09T00:24:56.799Z,302.58
2019-02-09T00:25:56.785Z,302.73
2019-02-09T00:26:56.749Z,302.25
2019-02-09T00:27:56.735Z,302.91
2019-02-09T00:28:56.747Z,302.27
2019-02-09T00:29:56.726Z,302.32
2019-02-09T00:30:56.722Z,302.30
2019-02-09T00:31:56.727Z,302.88
2019-02-09T00:32:56.704Z,302.18
2019-02-09T00:33:56.702Z,302.73
2019-02-09T00:34:58.308Z,302.19
2019-02-09T00:35:56.724Z,302.89
2019-02-09T00:36:56.671Z,302.23
2019-02-09T00:37:56.662Z,302.04
2019-02-09T00:38:56.658Z,302.06
2019-02-09T00:39:56.611Z,302.36
2019-02-09T00:40:56.629Z,302.73
2019-02-09T00:41:56.595Z,302.38
2019-02-09T00:42:56.590Z,302.49
2019-02-09T00:43:56.604Z,302.28
2019-02-09T00:44:57.340Z,301.92
2019-02-09T00:45:56.567Z,302.91
2019-02-09T00:46:57.279Z,302.79
2019-02-09T00:47:56.531Z,302.01
2019-02-09T00:48:56.820Z,302.55
2019-02-09T00:49:56.529Z,302.70
2019-02-09T00:50:56.495Z,302.19
2019-02-09T00:51:56.487Z,302.61
2019-02-09T00:52:56.494Z,302.16
2019-02-09T00:53:56.476Z,302.00
2019-02-09T00:54:56.434Z,302.06
2019-02-09T00:56:03.489Z,302.08
2019-02-09T00:56:56.457Z,301.61
2019-02-09T00:58:05.334Z,302.43
2019-02-09T00:58:56.438Z,302.03
2019-02-09T00:59:56.459Z,302.34
2019-02-09T01:00:56.386Z,302.19
2019-02-09T01:01:56.358Z,302.73
2019-02-09T01:02:56.356Z,302.40
2019-02-09T01:03:56.378Z,301.35
2019-02-09T01:05:04.349Z,301.91
2019-02-09T01:05:56.357Z,302.60
2019-02-09T01:06:56.305Z,302.02
2019-02-09T01:07:56.306Z,302.38
2019-02-09T01:08:56.351Z,302.14
2019-02-09T01:09:56.311Z,302.25
2019-02-09T01:10:56.269Z,301.70
2019-02-09T01:11:56.295Z,301.98
2019-02-09T01:12:56.247Z,302.61
2019-02-09T01:13:56.237Z,302.75
2019-02-09T01:14:56.376Z,302.09
2019-02-09T01:15:56.856Z,302.52
2019-02-09T01:16:56.208Z,302.04
2019-02-09T01:17:56.207Z,301.96
2019-02-09T01:18:56.183Z,302.87
2019-02-09T01:19:56.190Z,302.29
2019-02-09T01:20:56.181Z,302.33
2019-02-09T01:21:56.176Z,301.82
2019-02-09T01:22:56.157Z,302.24
2019-02-09T01:23:56.148Z,302.27
2019-02-09T01:24:56.169Z,301.52
2019-02-09T01:25:56.121Z,301.92
2019-02-09T01:26:56.116Z,302.57
2019-02-09T01:27:56.091Z,302.43
2019-02-09T01:28:56.098Z,302.73
2019-02-09T01:30:02.286Z,301.87
2019-02-09T01:30:57.078Z,302.54
2019-02-09T01:32:03.102Z,302.52
2019-02-09T01:33:04.065Z,302.86
2019-02-09T01:33:56.067Z,302.23
2019-02-09T01:35:04.055Z,302.73
2019-02-09T01:35:56.049Z,302.45
2019-02-09T01:36:55.994Z,302.96
2019-02-09T01:37:55.978Z,302.79
2019-02-09T01:38:57.934Z,302.79
2019-02-09T01:39:56.941Z,302.27
2019-02-09T01:40:55.973Z,302.79
2019-02-09T01:41:55.967Z,302.74
2019-02-09T01:42:55.939Z,302.91
2019-02-09T01:43:55.941Z,302.92
2019-02-09T01:44:55.934Z,302.98
2019-02-09T01:45:55.918Z,302.99
2019-02-09T01:46:55.899Z,302.85
2019-02-09T01:47:55.910Z,302.86
2019-02-09T01:48:55.866Z,302.45
2019-02-09T01:49:55.960Z,302.54
2019-02-09T01:50:55.866Z,302.81
2019-02-09T01:51:55.866Z,302.58
2019-02-09T01:52:55.837Z,302.24
2019-02-09T01:53:55.827Z,302.19
2019-02-09T01:54:55.854Z,302.47
2019-02-09T01:55:55.801Z,301.42
2019-02-09T01:56:55.798Z,302.27
2019-02-09T01:57:55.794Z,302.09
2019-02-09T01:59:03.813Z,302.32
2019-02-09T02:00:10.440Z,302.09
2019-02-09T02:00:56.767Z,301.80
2019-02-09T02:01:55.774Z,302.00
2019-02-09T02:02:55.720Z,301.86
2019-02-09T02:03:55.738Z,301.95
2019-02-09T02:04:55.720Z,301.90
2019-02-09T02:05:55.669Z,301.87
2019-02-09T02:06:55.674Z,302.37
2019-02-09T02:07:56.508Z,302.18
2019-02-09T02:08:55.699Z,302.34
2019-02-09T02:09:55.679Z,301.88
2019-02-09T02:10:55.666Z,301.95
2019-02-09T02:11:55.615Z,302.28
2019-02-09T02:12:55.606Z,301.10
2019-02-09T02:13:55.612Z,302.14
2019-02-09T02:14:55.798Z,302.38
2019-02-09T02:15:55.593Z,302.10
2019-02-09T02:17:02.664Z,301.83
2019-02-09T02:17:55.640Z,301.72
2019-02-09T02:18:55.627Z,301.66
2019-02-09T02:19:56.492Z,302.05
2019-02-09T02:21:03.609Z,302.19
2019-02-09T02:22:02.574Z,301.87
2019-02-09T02:23:04.079Z,301.74
2019-02-09T02:24:03.920Z,302.21
2019-02-09T02:25:03.132Z,301.84
2019-02-09T02:26:02.545Z,301.70
2019-02-09T02:27:03.170Z,302.17
2019-02-09T02:28:04.190Z,302.10
2019-02-09T02:29:02.503Z,301.80
2019-02-09T02:30:03.478Z,301.68
2019-02-09T02:31:02.495Z,301.78
2019-02-09T02:32:03.435Z,301.84
2019-02-09T02:33:03.430Z,301.15
2019-02-09T02:33:55.415Z,302.02
2019-02-09T02:35:03.425Z,302.44
2019-02-09T02:36:04.722Z,301.85
2019-02-09T02:36:55.380Z,301.74
2019-02-09T02:37:55.464Z,302.02
2019-02-09T02:38:55.364Z,302.64
2019-02-09T02:39:55.364Z,301.83
2019-02-09T02:40:55.352Z,301.89
2019-02-09T02:41:55.287Z,302.55
2019-02-09T02:42:55.285Z,301.79
2019-02-09T02:43:55.286Z,301.24
2019-02-09T02:44:55.287Z,302.03
2019-02-09T02:45:55.287Z,302.15
2019-02-09T02:46:55.237Z,301.79
2019-02-09T02:47:55.226Z,302.59
2019-02-09T02:48:55.253Z,302.32
2019-02-09T02:49:55.227Z,301.94
2019-02-09T02:50:55.266Z,301.59
2019-02-09T02:51:55.197Z,301.83
2019-02-09T02:52:55.168Z,301.60
2019-02-09T02:53:55.178Z,302.32
2019-02-09T02:54:55.183Z,301.97
2019-02-09T02:55:55.163Z,301.76
2019-02-09T02:56:55.154Z,301.97
2019-02-09T02:57:55.162Z,302.23
2019-02-09T02:58:55.104Z,301.93
2019-02-09T02:59:55.136Z,301.84
2019-02-09T03:00:55.106Z,301.33
2019-02-09T03:01:55.093Z,301.80
2019-02-09T03:02:55.099Z,302.05
2019-02-09T03:03:55.060Z,302.06
2019-02-09T03:04:55.037Z,301.25
2019-02-09T03:05:55.392Z,302.50
2019-02-09T03:06:55.043Z,302.52
2019-02-09T03:07:55.049Z,302.30
2019-02-09T03:08:55.018Z,302.26
2019-02-09T03:09:54.982Z,301.90
2019-02-09T03:10:55.037Z,301.79
2019-02-09T03:11:54.997Z,302.22
2019-02-09T03:12:54.973Z,301.78
2019-02-09T03:13:54.989Z,302.23
2019-02-09T03:14:54.953Z,302.38
2019-02-09T03:15:54.948Z,302.64
2019-02-09T03:16:54.919Z,302.36
2019-02-09T03:17:54.945Z,301.74
2019-02-09T03:18:54.903Z,302.48
2019-02-09T03:19:54.896Z,302.08
2019-02-09T03:20:54.914Z,302.04
2019-02-09T03:21:54.891Z,302.25
2019-02-09T03:23:01.910Z,302.57
2019-02-09T03:24:01.947Z,302.40
2019-02-09T03:24:54.858Z,302.42
2019-02-09T03:25:54.879Z,302.85
2019-02-09T03:26:54.823Z,302.93
2019-02-09T03:27:54.802Z,302.37
2019-02-09T03:28:54.788Z,302.42
2019-02-09T03:29:54.797Z,302.63
2019-02-09T03:30:54.812Z,302.84
2019-02-09T03:31:54.802Z,302.84
2019-02-09T03:32:54.797Z,303.05
2019-02-09T03:33:54.745Z,303.17
2019-02-09T03:34:54.749Z,302.59
2019-02-09T03:35:54.730Z,302.52
2019-02-09T03:36:54.735Z,303.68
2019-02-09T03:37:54.773Z,303.76
2019-02-09T03:38:54.702Z,303.18
2019-02-09T03:39:54.727Z,303.14
2019-02-09T03:40:54.694Z,303.33
2019-02-09T03:41:54.672Z,303.41
2019-02-09T03:42:54.666Z,303.19
2019-02-09T03:43:54.654Z,302.22
2019-02-09T03:44:54.615Z,302.90
2019-02-09T03:45:54.645Z,303.22
2019-02-09T03:46:54.645Z,303.83
2019-02-09T03:47:54.639Z,303.71
2019-02-09T03:48:54.587Z,302.99
2019-02-09T03:49:54.586Z,302.62
2019-02-09T03:50:54.588Z,302.81
2019-02-09T03:51:54.559Z,302.69
2019-02-09T03:52:54.547Z,303.33
2019-02-09T03:53:54.543Z,302.92
2019-02-09T03:54:54.533Z,303.05
2019-02-09T03:55:54.526Z,302.92
2019-02-09T03:56:54.494Z,302.70
2019-02-09T03:57:54.491Z,302.21
2019-02-09T03:58:54.469Z,302.04
2019-02-09T03:59:54.465Z,302.87
2019-02-09T04:00:55.794Z,301.70
2019-02-09T04:01:54.463Z,301.78
2019-02-09T04:02:54.452Z,301.65
2019-02-09T04:03:54.438Z,302.09
2019-02-09T04:04:54.402Z,302.52
2019-02-09T04:05:54.483Z,302.18
2019-02-09T04:06:54.454Z,301.83
2019-02-09T04:07:54.390Z,302.23
2019-02-09T04:08:54.378Z,302.23
2019-02-09T04:09:54.365Z,302.38
2019-02-09T04:10:54.466Z,302.27
2019-02-09T04:11:54.376Z,302.02
2019-02-09T04:12:54.358Z,301.95
2019-02-09T04:13:54.333Z,302.12
2019-02-09T04:14:54.304Z,301.40
2019-02-09T04:15:54.300Z,301.67
2019-02-09T04:16:54.351Z,302.53
2019-02-09T04:17:54.339Z,301.18
2019-02-09T04:18:54.291Z,301.64
2019-02-09T04:19:54.272Z,301.83
2019-02-09T04:21:01.299Z,301.97
2019-02-09T04:21:54.256Z,301.87
2019-02-09T04:23:02.268Z,301.88
2019-02-09T04:24:02.233Z,302.10
2019-02-09T04:25:02.282Z,302.05
2019-02-09T04:25:54.214Z,301.76
2019-02-09T04:27:02.252Z,302.12
2019-02-09T04:28:02.225Z,301.61
2019-02-09T04:28:54.152Z,301.74
2019-02-09T04:29:54.149Z,301.34
2019-02-09T04:30:54.145Z,302.10
2019-02-09T04:31:54.119Z,302.21
2019-02-09T04:32:54.129Z,302.01
2019-02-09T04:33:54.099Z,300.74
2019-02-09T04:34:54.108Z,301.40
2019-02-09T04:35:54.085Z,302.05
2019-02-09T04:36:54.093Z,301.18
2019-02-09T04:37:54.059Z,300.44
2019-02-09T04:38:54.062Z,302.37
2019-02-09T04:39:54.070Z,301.25
2019-02-09T04:40:54.011Z,301.27
2019-02-09T04:41:54.049Z,301.69
2019-02-09T04:42:53.983Z,301.04
2019-02-09T04:43:53.997Z,301.48
2019-02-09T04:45:01.069Z,301.62
2019-02-09T04:45:54.004Z,300.98
2019-02-09T04:46:54.008Z,301.03
2019-02-09T04:48:00.977Z,301.43
2019-02-09T04:49:01.963Z,300.90
2019-02-09T04:49:53.950Z,302.02
2019-02-09T04:50:53.931Z,302.25
2019-02-09T04:51:53.927Z,300.85
2019-02-09T04:52:53.927Z,301.20
2019-02-09T04:53:53.898Z,301.47
2019-02-09T04:54:53.875Z,301.62
2019-02-09T04:55:53.868Z,300.57
2019-02-09T04:56:53.864Z,301.67
2019-02-09T04:57:53.833Z,301.72
2019-02-09T04:58:53.850Z,301.39
2019-02-09T04:59:53.814Z,300.98
2019-02-09T05:00:53.813Z,301.23
2019-02-09T05:01:53.799Z,301.54
2019-02-09T05:02:53.786Z,301.88
2019-02-09T05:03:53.801Z,301.57
2019-02-09T05:04:53.757Z,301.00
2019-02-09T05:05:53.757Z,302.23
2019-02-09T05:06:53.819Z,301.22
2019-02-09T05:07:53.730Z,302.03
2019-02-09T05:08:53.738Z,300.99
2019-02-09T05:09:53.712Z,302.43
2019-02-09T05:10:53.688Z,300.78
2019-02-09T05:11:53.700Z,301.25
2019-02-09T05:13:00.761Z,301.61
2019-02-09T05:14:01.000Z,301.13
2019-02-09T05:15:00.713Z,301.35
2019-02-09T05:15:53.626Z,302.08
2019-02-09T05:16:53.653Z,301.25
2019-02-09T05:17:53.629Z,301.84
2019-02-09T05:18:53.638Z,300.79
2019-02-09T05:19:53.595Z,302.35
2019-02-09T05:20:53.623Z,300.43
2019-02-09T05:21:53.621Z,301.43
2019-02-09T05:23:00.650Z,301.10
2019-02-09T05:24:02.293Z,301.92
2019-02-09T05:25:01.654Z,301.67
2019-02-09T05:26:01.605Z,301.29
2019-02-09T05:26:53.554Z,302.72
2019-02-09T05:27:53.517Z,301.54
2019-02-09T05:28:53.509Z,301.15
2019-02-09T05:29:53.535Z,301.80
2019-02-09T05:30:53.547Z,301.22
2019-02-09T05:31:53.492Z,301.81
2019-02-09T05:32:53.499Z,301.79
2019-02-09T05:33:53.474Z,301.36
2019-02-09T05:34:53.472Z,302.38
2019-02-09T05:35:53.425Z,302.00
2019-02-09T05:36:53.471Z,300.94
2019-02-09T05:37:53.427Z,301.42
2019-02-09T05:38:53.435Z,301.52
2019-02-09T05:39:53.413Z,301.72
2019-02-09T05:40:53.393Z,301.99
2019-02-09T05:41:53.424Z,302.01
2019-02-09T05:42:53.397Z,301.36
2019-02-09T05:43:53.368Z,300.78
2019-02-09T05:44:53.383Z,301.86
2019-02-09T05:45:53.353Z,300.48
2019-02-09T05:46:53.352Z,301.68
2019-02-09T05:47:53.348Z,301.72
2019-02-09T05:48:53.291Z,301.86
2019-02-09T05:49:53.283Z,302.10
2019-02-09T05:50:53.264Z,301.28
2019-02-09T05:51:53.325Z,302.05
2019-02-09T05:52:53.846Z,302.57
2019-02-09T05:53:53.271Z,303.64
2019-02-09T05:54:53.234Z,301.48
2019-02-09T05:55:53.210Z,303.14
2019-02-09T05:56:53.351Z,302.53
2019-02-09T05:57:53.262Z,302.39
2019-02-09T05:58:53.185Z,301.80
2019-02-09T06:00:01.222Z,302.10
2019-02-09T06:00:54.217Z,302.31
2019-02-09T06:01:53.189Z,301.67
2019-02-09T06:02:53.181Z,302.52
2019-02-09T06:03:53.145Z,302.02
2019-02-09T06:04:53.113Z,302.33
2019-02-09T06:05:53.108Z,301.35
2019-02-09T06:06:53.383Z,303.20
2019-02-09T06:07:53.093Z,302.38
2019-02-09T06:08:53.087Z,302.00
2019-02-09T06:09:53.853Z,302.69
2019-02-09T06:11:01.097Z,302.51
2019-02-09T06:12:01.108Z,302.44
2019-02-09T06:13:00.107Z,302.90
2019-02-09T06:14:01.086Z,302.73
2019-02-09T06:15:00.310Z,303.05
2019-02-09T06:16:00.071Z,302.05
2019-02-09T06:17:00.088Z,302.08
2019-02-09T06:18:00.061Z,302.74
2019-02-09T06:19:01.019Z,302.42
2019-02-09T06:20:03.005Z,302.70
2019-02-09T06:21:00.025Z,303.23
2019-02-09T06:22:00.988Z,302.47
2019-02-09T06:23:00.703Z,303.29
2019-02-09T06:23:52.929Z,302.89
2019-02-09T06:24:52.987Z,303.02
2019-02-09T06:26:00.735Z,303.59
2019-02-09T06:27:00.941Z,303.44
2019-02-09T06:27:52.897Z,304.07
2019-02-09T06:28:52.917Z,303.55
2019-02-09T06:29:52.836Z,303.09
2019-02-09T06:30:52.840Z,302.62
2019-02-09T06:31:52.836Z,303.94
2019-02-09T06:32:52.827Z,302.83
2019-02-09T06:33:52.836Z,303.63
2019-02-09T06:34:53.774Z,303.66
2019-02-09T06:35:52.861Z,303.48
2019-02-09T06:36:52.793Z,302.10
2019-02-09T06:37:53.014Z,304.15
2019-02-09T06:38:52.772Z,303.08
2019-02-09T06:39:52.790Z,302.79
2019-02-09T06:40:52.737Z,303.96
2019-02-09T06:42:00.814Z,302.41
2019-02-09T06:43:00.816Z,303.36
2019-02-09T06:44:00.806Z,301.74
2019-02-09T06:44:52.720Z,303.54
2019-02-09T06:45:52.716Z,302.70
2019-02-09T06:46:52.687Z,304.28
2019-02-09T06:47:52.734Z,303.67
2019-02-09T06:48:52.666Z,303.44
2019-02-09T06:49:52.658Z,303.67
2019-02-09T06:50:52.643Z,303.77
2019-02-09T06:51:52.608Z,302.92
2019-02-09T06:52:52.687Z,303.36
2019-02-09T06:53:52.626Z,303.70
2019-02-09T06:54:52.594Z,303.92
2019-02-09T06:55:52.578Z,304.02
2019-02-09T06:56:52.568Z,303.56
2019-02-09T06:57:52.579Z,303.40
2019-02-09T06:58:52.550Z,303.59
2019-02-09T07:00:01.853Z,303.83
2019-02-09T07:00:52.567Z,303.70
2019-02-09T07:01:59.620Z,303.47
2019-02-09T07:03:02.913Z,303.89
2019-02-09T07:04:03.144Z,304.07
2019-02-09T07:05:00.824Z,303.28
2019-02-09T07:06:01.450Z,304.49
2019-02-09T07:06:52.548Z,304.41
2019-02-09T07:07:52.475Z,303.91
2019-02-09T07:08:52.566Z,303.64
2019-02-09T07:11:09.184Z,303.24
2019-02-09T07:12:09.420Z,303.69
2019-02-09T07:13:09.905Z,304.34
2019-02-09T07:14:09.068Z,303.83
2019-02-09T07:15:09.192Z,304.61
2019-02-09T07:16:09.291Z,305.42
2019-02-09T07:17:18.964Z,304.72
2019-02-09T07:20:35.542Z,302.66
2019-02-09T07:24:02.723Z,303.34
2019-02-09T07:25:13.648Z,304.37
2019-02-09T07:27:28.303Z,302.84
2019-02-09T07:28:28.257Z,304.23
2019-02-09T07:29:28.249Z,304.57
2019-02-09T07:30:36.185Z,303.96
2019-02-09T07:31:28.232Z,304.60
2019-02-09T07:32:28.215Z,304.80
2019-02-09T07:33:29.125Z,304.96
2019-02-09T07:34:28.181Z,304.83
2019-02-09T07:35:28.169Z,304.78
2019-02-09T07:36:28.142Z,304.50
2019-02-09T07:37:28.126Z,304.16
2019-02-09T07:38:28.167Z,304.08
2019-02-09T07:39:28.120Z,304.67
2019-02-09T07:40:28.098Z,304.66
2019-02-09T07:41:28.106Z,304.13
2019-02-09T07:42:28.081Z,304.83
2019-02-09T07:43:28.077Z,305.24
2019-02-09T07:44:28.062Z,304.32
2019-02-09T07:45:28.054Z,304.86
2019-02-09T07:46:28.033Z,305.39
2019-02-09T07:47:28.076Z,304.96
2019-02-09T07:48:28.039Z,305.62
2019-02-09T07:49:28.023Z,306.18
2019-02-09T07:50:28.000Z,305.58
2019-02-09T07:51:28.000Z,305.32
2019-02-09T07:52:28.631Z,304.56
2019-02-09T07:53:28.072Z,304.58
2019-02-09T07:54:27.956Z,305.43
2019-02-09T07:55:27.990Z,306.45
2019-02-09T07:56:27.929Z,305.41
2019-02-09T07:57:27.930Z,305.77
2019-02-09T07:58:27.941Z,306.03
2019-02-09T07:59:27.935Z,305.64
2019-02-09T08:00:27.930Z,304.67
2019-02-09T08:01:27.893Z,304.28
2019-02-09T08:02:27.867Z,305.19
2019-02-09T08:03:27.897Z,304.99
2019-02-09T08:04:27.865Z,304.87
2019-02-09T08:05:27.849Z,304.93
2019-02-09T08:06:27.869Z,305.56
2019-02-09T08:07:27.860Z,305.43
2019-02-09T08:08:27.829Z,305.18
2019-02-09T08:09:27.821Z,305.92
2019-02-09T08:10:27.810Z,305.85
2019-02-09T08:11:27.793Z,305.11
2019-02-09T08:12:27.850Z,305.38
2019-02-09T08:13:30.499Z,305.39
2019-02-09T08:14:29.827Z,305.49
2019-02-09T08:15:28.176Z,304.89
2019-02-09T08:16:27.754Z,306.19
2019-02-09T08:17:28.707Z,305.81
2019-02-09T08:18:27.748Z,305.39
2019-02-09T08:19:27.691Z,304.91
2019-02-09T08:20:27.723Z,304.77
2019-02-09T08:21:27.682Z,306.15
2019-02-09T08:22:27.661Z,305.86
2019-02-09T08:23:27.667Z,305.70
2019-02-09T08:24:27.645Z,305.13
2019-02-09T08:25:27.711Z,306.25
2019-02-09T08:26:27.633Z,304.83
2019-02-09T08:27:27.612Z,305.96
2019-02-09T08:28:27.639Z,305.47
2019-02-09T08:29:27.586Z,305.54
2019-02-09T08:30:27.603Z,304.94
2019-02-09T08:31:27.569Z,305.33
2019-02-09T08:32:27.569Z,306.02
2019-02-09T08:33:27.564Z,305.42
2019-02-09T08:34:27.559Z,305.29
2019-02-09T08:35:27.531Z,305.65
2019-02-09T08:36:27.524Z,305.40
2019-02-09T08:37:27.509Z,305.81
2019-02-09T08:38:27.667Z,305.11
2019-02-09T08:39:27.712Z,304.64
2019-02-09T08:40:27.869Z,304.26
2019-02-09T08:41:27.909Z,304.77
2019-02-09T08:42:27.475Z,304.61
2019-02-09T08:43:27.472Z,304.99
2019-02-09T08:44:27.435Z,304.90
2019-02-09T08:45:27.486Z,305.31
2019-02-09T08:46:27.428Z,304.82
2019-02-09T08:47:27.387Z,304.23
2019-02-09T08:48:27.423Z,304.89
2019-02-09T08:49:27.386Z,305.16
2019-02-09T08:50:27.486Z,304.65
2019-02-09T08:51:27.362Z,305.05
2019-02-09T08:52:27.347Z,304.74
2019-02-09T08:53:28.136Z,304.30
2019-02-09T08:54:35.177Z,304.34
2019-02-09T08:55:27.332Z,303.96
2019-02-09T08:56:27.333Z,304.34
2019-02-09T08:57:27.311Z,304.74
2019-02-09T08:58:27.354Z,304.52
2019-02-09T08:59:27.262Z,303.94
2019-02-09T09:00:30.162Z,304.27
2019-02-09T09:01:27.353Z,304.62
2019-02-09T09:02:36.281Z,304.17
2019-02-09T09:03:27.363Z,304.34
2019-02-09T09:04:27.294Z,304.08
2019-02-09T09:05:27.245Z,303.44
2019-02-09T09:06:27.198Z,304.43
2019-02-09T09:07:27.719Z,304.42
2019-02-09T09:08:27.816Z,304.33
2019-02-09T09:09:27.186Z,304.61
2019-02-09T09:10:27.173Z,304.83
2019-02-09T09:11:27.131Z,304.14
2019-02-09T09:12:27.133Z,303.73
2019-02-09T09:13:27.145Z,303.97
2019-02-09T09:14:27.130Z,304.38
2019-02-09T09:15:27.107Z,303.93
2019-02-09T09:16:27.085Z,304.27
2019-02-09T09:17:27.078Z,304.73
2019-02-09T09:18:27.098Z,303.89
2019-02-09T09:19:27.712Z,303.85
2019-02-09T09:20:27.055Z,305.28
2019-02-09T09:21:27.052Z,304.41
2019-02-09T09:22:27.021Z,304.98
2019-02-09T09:23:27.049Z,304.47
2019-02-09T09:24:27.035Z,305.16
2019-02-09T09:25:26.989Z,303.69
2019-02-09T09:26:26.980Z,305.13
2019-02-09T09:27:26.986Z,305.40
2019-02-09T09:28:26.965Z,304.93
2019-02-09T09:29:26.941Z,305.72
2019-02-09T09:30:26.950Z,305.52
2019-02-09T09:31:27.690Z,304.60
2019-02-09T09:32:28.621Z,305.99
2019-02-09T09:33:26.943Z,304.16
2019-02-09T09:34:26.896Z,304.59
2019-02-09T09:35:26.887Z,304.63
2019-02-09T09:36:26.884Z,304.51
2019-02-09T09:37:26.874Z,303.31
2019-02-09T09:38:26.854Z,304.53
2019-02-09T09:39:26.865Z,303.66
2019-02-09T09:40:26.826Z,303.13
2019-02-09T09:41:26.817Z,303.56
2019-02-09T09:42:26.835Z,302.61
2019-02-09T09:43:26.835Z,303.54
2019-02-09T09:44:26.826Z,304.08
2019-02-09T09:45:26.808Z,302.56
2019-02-09T09:46:26.768Z,302.57
2019-02-09T09:47:26.759Z,300.81
2019-02-09T09:48:26.763Z,301.37
2019-02-09T09:49:34.837Z,301.63
2019-02-09T09:50:26.743Z,301.24
2019-02-09T09:51:26.732Z,300.90
2019-02-09T09:52:26.736Z,300.99
2019-02-09T09:53:26.709Z,301.26
2019-02-09T09:54:26.683Z,300.50
2019-02-09T09:55:26.670Z,300.64
2019-02-09T09:56:26.697Z,300.77
2019-02-09T09:57:36.968Z,301.37
2019-02-09T09:58:35.028Z,302.17
2019-02-09T09:59:28.479Z,300.27
2019-02-09T10:00:35.525Z,300.77
2019-02-09T10:01:34.394Z,300.80
2019-02-09T10:03:58.614Z,300.92
2019-02-09T10:05:07.451Z,299.00
2019-02-09T10:10:39.490Z,300.69
2019-02-09T10:11:49.398Z,301.14
2019-02-09T10:14:10.255Z,302.44
2019-02-09T10:15:11.203Z,302.49
2019-02-09T10:16:10.399Z,301.48
2019-02-09T10:17:10.161Z,302.31
2019-02-09T10:18:10.043Z,300.92
2019-02-09T10:19:11.966Z,300.45
2019-02-09T10:20:18.896Z,300.57
2019-02-09T10:21:18.664Z,300.40
2019-02-09T10:22:18.042Z,301.45
2019-02-09T10:23:10.619Z,300.39
2019-02-09T10:24:22.265Z,302.07
2019-02-09T10:25:13.458Z,301.78
2019-02-09T10:27:27.953Z,298.75
2019-02-09T10:33:57.258Z,300.46
2019-02-09T10:34:57.256Z,300.62
2019-02-09T10:35:59.387Z,301.90
2019-02-09T10:36:57.871Z,302.58
2019-02-09T10:37:57.198Z,300.87
2019-02-09T10:39:05.294Z,302.05
2019-02-09T10:40:05.866Z,300.67
2019-02-09T10:41:04.904Z,300.81
2019-02-09T10:41:57.122Z,299.50
2019-02-09T10:43:04.242Z,299.45
2019-02-09T10:44:04.231Z,299.98
2019-02-09T10:44:57.075Z,300.39
2019-02-09T10:45:58.090Z,300.77
2019-02-09T10:46:57.078Z,298.26
2019-02-09T10:47:57.054Z,298.75
2019-02-09T10:48:57.082Z,298.71
2019-02-09T10:49:57.058Z,299.55
2019-02-09T10:50:57.064Z,299.30
2019-02-09T10:51:57.066Z,300.27
2019-02-09T10:52:57.027Z,298.99
2019-02-09T10:53:57.053Z,299.56
2019-02-09T10:54:57.030Z,299.57
2019-02-09T10:55:57.036Z,299.56
2019-02-09T10:56:56.989Z,301.78
2019-02-09T10:57:56.989Z,301.29
2019-02-09T10:58:56.948Z,298.88
2019-02-09T10:59:56.955Z,299.84
2019-02-09T11:00:56.938Z,299.48
2019-02-09T11:01:56.917Z,300.62
2019-02-09T11:02:56.931Z,300.48
2019-02-09T11:03:56.894Z,302.49
2019-02-09T11:04:56.964Z,302.61
2019-02-09T11:05:56.881Z,302.42
2019-02-09T11:06:56.869Z,298.99
2019-02-09T11:07:56.857Z,299.45
2019-02-09T11:08:56.879Z,299.79
2019-02-09T11:09:56.858Z,298.62
2019-02-09T11:10:56.799Z,299.31
2019-02-09T11:11:56.847Z,298.49
2019-02-09T11:12:56.810Z,300.06
2019-02-09T11:13:56.780Z,301.69
2019-02-09T11:14:56.823Z,298.82
2019-02-09T11:15:56.761Z,298.98
2019-02-09T11:16:56.729Z,299.34
2019-02-09T11:17:56.797Z,300.83
2019-02-09T11:18:56.756Z,298.10
2019-02-09T11:19:56.742Z,297.28
2019-02-09T11:20:56.744Z,303.02
2019-02-09T11:21:56.743Z,302.18
2019-02-09T11:22:56.691Z,298.77
2019-02-09T11:23:56.765Z,298.52
2019-02-09T11:24:56.712Z,298.66
2019-02-09T11:25:56.663Z,298.42
2019-02-09T11:26:56.656Z,298.42
2019-02-09T11:27:56.648Z,297.83
2019-02-09T11:28:56.668Z,298.47
2019-02-09T11:29:56.647Z,297.61
2019-02-09T11:30:56.613Z,298.32
2019-02-09T11:31:56.666Z,299.34
2019-02-09T11:33:02.007Z,298.82
2019-02-09T11:33:56.571Z,299.04
2019-02-09T11:34:56.559Z,299.34
2019-02-09T11:35:56.536Z,298.66
2019-02-09T11:36:56.542Z,297.79
2019-02-09T11:37:56.534Z,299.81
2019-02-09T11:38:56.539Z,300.66
2019-02-09T11:39:56.523Z,301.07
2019-02-09T11:40:56.584Z,297.42
2019-02-09T11:41:56.467Z,299.89
2019-02-09T11:42:57.420Z,299.88
2019-02-09T11:43:56.533Z,301.59
2019-02-09T11:44:56.485Z,299.30
2019-02-09T11:45:56.418Z,302.21
2019-02-09T11:46:56.434Z,300.54
2019-02-09T11:47:56.927Z,299.93
2019-02-09T11:48:56.434Z,299.50
2019-02-09T11:49:56.444Z,300.51
2019-02-09T11:50:56.393Z,299.88
2019-02-09T11:51:56.385Z,305.33
2019-02-09T11:52:56.369Z,300.62
2019-02-09T11:53:56.348Z,301.05
2019-02-09T11:54:56.378Z,299.37
2019-02-09T11:55:56.348Z,300.41
2019-02-09T11:57:03.366Z,298.87
2019-02-09T11:58:05.140Z,296.91
2019-02-09T11:58:57.235Z,298.84
2019-02-09T11:59:56.340Z,298.83
2019-02-09T12:00:56.648Z,297.74
2019-02-09T12:01:56.979Z,299.43
2019-02-09T12:03:02.866Z,298.99
2019-02-09T12:03:57.273Z,297.75
2019-02-09T12:04:56.299Z,297.47
2019-02-09T12:05:56.251Z,297.62
2019-02-09T12:06:56.197Z,298.52
2019-02-09T12:07:56.199Z,297.41
2019-02-09T12:08:56.198Z,298.31
2019-02-09T12:09:57.016Z,299.02
2019-02-09T12:10:56.183Z,296.71
2019-02-09T12:11:56.160Z,299.39
2019-02-09T12:12:56.984Z,298.06
2019-02-09T12:13:57.091Z,298.53
2019-02-09T12:14:58.566Z,298.85
2019-02-09T12:15:56.247Z,299.37
2019-02-09T12:17:04.239Z,300.09
2019-02-09T12:17:56.137Z,299.22
2019-02-09T12:18:56.190Z,300.22
2019-02-09T12:19:56.158Z,301.52
2019-02-09T12:20:56.060Z,300.98
2019-02-09T12:21:56.063Z,299.32
2019-02-09T12:22:56.192Z,298.94
2019-02-09T12:23:56.037Z,299.64
2019-02-09T12:24:56.046Z,298.18
2019-02-09T12:25:56.056Z,299.72
2019-02-09T12:26:56.103Z,298.47
2019-02-09T12:27:55.987Z,299.42
2019-02-09T12:28:56.017Z,297.99
2019-02-09T12:29:56.651Z,300.11
2019-02-09T12:31:03.044Z,297.97
2019-02-09T12:32:03.021Z,298.84
2019-02-09T12:33:03.139Z,300.45
2019-02-09T12:34:03.104Z,301.29
2019-02-09T12:35:03.005Z,300.97
2019-02-09T12:36:03.643Z,303.31
2019-02-09T12:37:02.952Z,307.20
2019-02-09T12:37:55.984Z,305.76
2019-02-09T12:38:55.915Z,302.18
2019-02-09T12:39:55.868Z,304.42
2019-02-09T12:40:55.988Z,302.81
2019-02-09T12:41:55.823Z,302.04
2019-02-09T12:42:55.842Z,303.70
2019-02-09T12:43:55.799Z,302.77
2019-02-09T12:44:55.840Z,302.02
2019-02-09T12:45:55.805Z,302.87
2019-02-09T12:46:56.054Z,302.50
2019-02-09T12:47:55.809Z,301.40
2019-02-09T12:48:55.773Z,296.67
2019-02-09T12:49:55.769Z,302.25
2019-02-09T12:50:56.601Z,302.28